createdAt,value
2022-11-14T00:08:30.648Z,6.44
2022-11-14T00:18:37.170Z,6.44
2022-11-14T00:28:43.461Z,6.47
2022-11-14T00:38:49.731Z,6.18
2022-11-14T00:48:56.017Z,6.36
2022-11-14T00:59:02.363Z,6.28
2022-11-14T01:09:10.191Z,6.15
2022-11-14T01:19:16.534Z,6.15
2022-11-14T01:29:22.929Z,6.23
2022-11-14T01:39:29.208Z,5.97
2022-11-14T01:49:44.697Z,6.22
2022-11-14T01:59:54.152Z,6.14
2022-11-14T02:10:03.213Z,5.94
2022-11-14T02:20:12.805Z,6.12
2022-11-14T02:30:22.370Z,6.03
2022-11-14T02:40:28.648Z,6.03
2022-11-14T02:50:35.012Z,5.96
2022-11-14T03:01:05.946Z,5.91
2022-11-14T03:11:09.029Z,6.11
2022-11-14T03:21:18.089Z,5.72
2022-11-14T03:31:24.628Z,5.74
2022-11-14T03:41:30.937Z,5.87
2022-11-14T03:51:37.186Z,5.61
2022-11-14T04:01:43.442Z,5.77
2022-11-14T04:11:49.865Z,5.70
2022-11-14T04:21:56.157Z,5.69
2022-11-14T04:32:02.413Z,5.48
2022-11-14T04:42:08.666Z,5.49
2022-11-14T04:52:15.024Z,5.55
2022-11-14T05:02:21.322Z,5.65
2022-11-14T05:12:27.569Z,5.55
2022-11-14T05:22:33.867Z,5.51
2022-11-14T05:32:40.127Z,5.81
2022-11-14T05:42:46.418Z,5.49
2022-11-14T05:52:52.787Z,5.78
2022-11-14T06:02:59.135Z,5.70
2022-11-14T06:13:05.430Z,5.72
2022-11-14T06:23:11.698Z,5.81
2022-11-14T06:33:17.976Z,5.54
2022-11-14T06:43:24.261Z,5.78
2022-11-14T06:53:32.014Z,5.63
2022-11-14T07:03:38.516Z,5.51
2022-11-14T07:13:44.786Z,5.57
2022-11-14T07:23:51.506Z,5.85
2022-11-14T07:33:57.792Z,5.85
2022-11-14T07:44:04.283Z,6.26
2022-11-14T07:54:14.350Z,6.23
2022-11-14T08:04:20.654Z,6.23
2022-11-14T08:14:27.022Z,5.94
2022-11-14T08:24:33.331Z,6.23
2022-11-14T08:34:39.590Z,6.17
2022-11-14T08:44:51.685Z,6.03
2022-11-14T08:54:58.393Z,6.11
2022-11-14T09:05:04.755Z,6.20
2022-11-14T09:15:11.577Z,6.15
2022-11-14T09:25:17.845Z,6.33
2022-11-14T09:35:24.140Z,6.53
2022-11-14T09:45:30.555Z,6.85
2022-11-14T09:55:37.497Z,6.55
2022-11-14T10:06:16.870Z,6.81
2022-11-14T10:16:51.136Z,6.79
2022-11-14T10:27:06.377Z,6.72
2022-11-14T10:37:17.555Z,6.74
2022-11-14T10:47:25.429Z,6.97
2022-11-14T10:57:31.787Z,6.95
2022-11-14T11:08:28.133Z,7.55
2022-11-14T11:18:33.391Z,7.25
2022-11-14T11:28:39.953Z,7.42
2022-11-14T11:38:46.707Z,7.47
2022-11-14T11:48:56.624Z,7.78
2022-11-14T11:59:10.742Z,7.73
2022-11-14T12:09:22.322Z,7.75
2022-11-14T12:19:39.253Z,7.91
2022-11-14T12:29:54.480Z,7.81
2022-11-14T12:40:06.890Z,8.05
2022-11-14T12:50:32.254Z,8.48
2022-11-14T13:00:48.081Z,8.28
2022-11-14T13:10:54.372Z,8.65
2022-11-14T13:21:38.599Z,8.40
2022-11-14T13:31:51.943Z,8.02
2022-11-14T13:42:10.200Z,8.01
2022-11-14T13:52:17.243Z,8.06
2022-11-14T14:02:33.063Z,7.92
2022-11-14T14:12:58.099Z,7.99
2022-11-14T14:23:18.514Z,7.80
2022-11-14T14:33:24.773Z,7.58
2022-11-14T14:43:35.376Z,7.44
2022-11-14T14:53:52.899Z,7.29
2022-11-14T15:04:04.152Z,7.25
2022-11-14T15:14:19.410Z,7.31
2022-11-14T15:24:25.711Z,7.09
2022-11-14T15:34:37.882Z,7.25
2022-11-14T15:44:44.292Z,7.03
2022-11-14T15:54:50.549Z,6.92
2022-11-14T16:04:57.454Z,6.71
2022-11-14T16:15:03.760Z,6.74
2022-11-14T16:25:19.826Z,6.35
2022-11-14T16:35:27.817Z,6.16
2022-11-14T16:45:34.097Z,6.09
2022-11-14T16:55:46.085Z,5.86
2022-11-14T17:05:53.360Z,6.13
2022-11-14T17:16:03.155Z,6.02
2022-11-14T17:26:11.532Z,6.04
2022-11-14T17:36:18.206Z,6.11
2022-11-14T17:46:24.606Z,6.13
2022-11-14T17:56:31.134Z,6.24
2022-11-14T18:06:37.402Z,6.25
2022-11-14T18:17:11.054Z,5.98
2022-11-14T18:27:09.867Z,6.17
2022-11-14T18:37:16.255Z,5.95
2022-11-14T18:47:22.538Z,6.06
2022-11-14T18:57:28.820Z,6.00
2022-11-14T19:07:35.214Z,5.81
2022-11-14T19:17:41.570Z,6.11
2022-11-14T19:27:52.014Z,6.10
2022-11-14T19:37:58.279Z,5.88
2022-11-14T19:48:04.633Z,5.84
2022-11-14T19:58:10.888Z,5.98
2022-11-14T20:08:17.719Z,6.01
2022-11-14T20:18:24.042Z,6.03
2022-11-14T20:28:30.368Z,6.18
2022-11-14T20:38:36.619Z,6.20
2022-11-14T20:48:43.649Z,6.46
2022-11-14T20:58:52.837Z,6.36
2022-11-14T21:08:59.183Z,6.32
2022-11-14T21:19:06.713Z,6.52
2022-11-14T21:29:14.055Z,6.52
2022-11-14T21:39:20.413Z,6.29
2022-11-14T21:49:26.860Z,6.19
2022-11-14T21:59:33.173Z,6.33
2022-11-14T22:09:44.954Z,6.09
2022-11-14T22:19:51.666Z,6.28
2022-11-14T22:29:57.970Z,6.20
2022-11-14T22:40:04.394Z,6.30
2022-11-14T22:50:10.718Z,6.26
2022-11-14T23:00:18.589Z,6.51
2022-11-14T23:10:24.862Z,6.30
2022-11-14T23:20:31.670Z,6.40
2022-11-14T23:30:38.133Z,6.14
2022-11-14T23:40:44.434Z,6.33
2022-11-14T23:50:54.851Z,6.23
